Gilleleje, Denmark
Current Conditions -  °F | °C
As of 10:20 AM on Monday 20 Oct 2014 (Local Time) from ESTA Reporting Station
Broken Clouds Broken Clouds  
Wind Chill: 13°   Ceiling: 4400
Heat Index: 13°   Visibility: 6mi
Dew Point: 10°   Wind: 21mph
Humidity: 82%   Direction: 260°W
Pressure: 29.59"   Gusts: NA
Location:  56.12°N, 12.31°E
Report Text: ESTA 200820Z 26018KT 9999 FEW015 SCT037 BKN044 13/10 Q1002
Loading
Personal Weather Stations






























Interactive Weather Map
Tropical Storm Tracking
New forecast layout! Learn more

10-Day Weather Forecast

Advertisements
Track Severe Weather on mobile